createdAt,value
2022-09-01T00:04:00.830Z,24.66
2022-09-01T00:09:05.716Z,24.78
2022-09-01T00:14:16.833Z,24.70
2022-09-01T00:19:35.935Z,24.61
2022-09-01T00:24:39.389Z,24.56
2022-09-01T00:29:44.195Z,24.96
2022-09-01T00:34:46.521Z,25.27
2022-09-01T00:39:48.866Z,25.12
2022-09-01T00:44:51.181Z,25.04
2022-09-01T00:49:53.827Z,25.14
2022-09-01T00:55:00.076Z,25.18
2022-09-01T01:00:06.571Z,24.65
2022-09-01T01:05:29.919Z,25.08
2022-09-01T01:10:33.504Z,24.66
2022-09-01T01:15:36.748Z,24.76
2022-09-01T01:20:57.986Z,24.80
2022-09-01T01:26:04.989Z,24.94
2022-09-01T01:31:12.826Z,24.71
2022-09-01T01:36:27.801Z,24.61
2022-09-01T01:41:34.249Z,24.67
2022-09-01T01:46:43.095Z,24.69
2022-09-01T01:51:47.408Z,24.70
2022-09-01T01:56:50.147Z,24.90
2022-09-01T02:02:00.719Z,24.80
2022-09-01T02:07:03.081Z,24.64
2022-09-01T02:12:16.844Z,24.78
2022-09-01T02:17:19.940Z,24.67
2022-09-01T02:22:26.156Z,24.65
2022-09-01T02:27:29.733Z,24.58
2022-09-01T02:32:32.265Z,24.48
2022-09-01T02:37:43.577Z,24.44
2022-09-01T02:42:48.122Z,24.81
2022-09-01T02:47:51.576Z,24.24
2022-09-01T02:52:54.697Z,24.04
2022-09-01T02:57:58.327Z,23.98
2022-09-01T03:03:01.985Z,23.68
2022-09-01T03:08:07.487Z,23.38
2022-09-01T03:13:18.140Z,23.08
2022-09-01T03:18:20.934Z,22.52
2022-09-01T03:23:29.505Z,22.13
2022-09-01T03:28:33.259Z,22.02
2022-09-01T03:33:39.241Z,22.13
2022-09-01T03:38:50.706Z,22.09
2022-09-01T03:43:59.011Z,22.10
2022-09-01T03:49:07.420Z,21.56
2022-09-01T03:54:13.864Z,21.58
2022-09-01T03:59:19.655Z,21.57
2022-09-01T04:04:24.768Z,21.70
2022-09-01T04:09:27.236Z,21.88
2022-09-01T04:14:31.741Z,21.74
2022-09-01T04:19:37.131Z,21.85
2022-09-01T04:24:45.061Z,21.97
2022-09-01T04:29:48.784Z,21.81
2022-09-01T04:34:51.805Z,21.83
2022-09-01T04:39:58.519Z,22.23
2022-09-01T04:45:10.328Z,22.22
2022-09-01T04:50:23.503Z,21.67
2022-09-01T04:55:50.169Z,21.57
2022-09-01T05:00:56.174Z,21.36
2022-09-01T05:06:03.793Z,21.52
2022-09-01T05:11:09.857Z,21.56
2022-09-01T05:16:25.297Z,21.81
2022-09-01T05:21:31.254Z,21.72
2022-09-01T05:26:34.983Z,21.42
2022-09-01T05:31:38.214Z,21.43
2022-09-01T05:36:44.617Z,21.74
2022-09-01T05:41:57.336Z,21.48
2022-09-01T05:47:00.474Z,21.68
2022-09-01T05:52:10.779Z,21.67
2022-09-01T05:57:33.351Z,21.61
2022-09-01T06:02:37.873Z,21.33
2022-09-01T06:07:45.440Z,21.19
2022-09-01T06:12:50.587Z,21.70
2022-09-01T06:18:03.027Z,21.65
2022-09-01T06:23:07.699Z,21.50
2022-09-01T06:28:14.771Z,21.53
2022-09-01T06:33:22.084Z,21.77
2022-09-01T06:38:30.800Z,21.44
2022-09-01T06:43:37.707Z,22.05
2022-09-01T06:48:40.257Z,21.87
2022-09-01T06:53:53.175Z,22.02
2022-09-01T06:59:00.005Z,21.85
2022-09-01T07:04:04.080Z,21.54
2022-09-01T07:09:47.609Z,21.89
2022-09-01T07:20:24.458Z,21.79
2022-09-01T07:25:35.781Z,21.93
2022-09-01T07:31:48.872Z,21.93
2022-09-01T07:37:16.156Z,21.79
2022-09-01T07:47:55.665Z,21.67
2022-09-01T07:52:58.717Z,21.93
2022-09-01T08:04:55.446Z,21.86
2022-09-01T08:10:01.436Z,21.71
2022-09-01T08:15:13.998Z,21.73
2022-09-01T08:20:37.723Z,21.95
2022-09-01T08:26:05.144Z,21.99
2022-09-01T08:31:31.393Z,21.64
2022-09-01T08:36:36.619Z,21.75
2022-09-01T08:41:46.347Z,21.82
2022-09-01T08:46:57.197Z,21.92
2022-09-01T08:52:19.756Z,21.91
2022-09-01T08:57:59.190Z,22.09
2022-09-01T09:03:10.302Z,22.05
2022-09-01T09:08:26.652Z,22.07
2022-09-01T09:13:54.369Z,22.20
2022-09-01T09:19:06.669Z,22.10
2022-09-01T09:24:21.533Z,22.24
2022-09-01T09:29:25.751Z,22.78
2022-09-01T09:34:28.057Z,22.74
2022-09-01T09:39:30.542Z,22.77
2022-09-01T09:44:33.131Z,22.75
2022-09-01T09:49:42.212Z,22.53
2022-09-01T09:55:05.151Z,22.27
2022-09-01T10:00:16.746Z,22.01
2022-09-01T10:05:24.980Z,22.12
2022-09-01T10:10:58.271Z,22.21
2022-09-01T10:16:08.085Z,22.00
2022-09-01T10:21:25.593Z,22.20
2022-09-01T10:26:39.525Z,22.40
2022-09-01T10:31:45.752Z,22.60
2022-09-01T10:36:54.945Z,22.52
2022-09-01T10:42:07.298Z,22.63
2022-09-01T10:47:24.283Z,22.61
2022-09-01T10:52:43.731Z,23.09
2022-09-01T10:57:55.832Z,23.45
2022-09-01T11:03:31.628Z,23.76
2022-09-01T11:08:34.204Z,23.61
2022-09-01T11:13:46.413Z,23.38
2022-09-01T11:18:51.893Z,23.24
2022-09-01T11:24:16.275Z,23.38
2022-09-01T11:29:38.840Z,23.13
2022-09-01T11:34:58.619Z,23.52
2022-09-01T11:40:08.664Z,23.82
2022-09-01T11:45:25.006Z,23.73
2022-09-01T11:50:29.061Z,24.01
2022-09-01T11:55:35.898Z,23.95
2022-09-01T12:00:44.709Z,23.96
2022-09-01T12:05:50.324Z,24.11
2022-09-01T12:11:02.431Z,24.27
2022-09-01T12:16:18.053Z,24.75
2022-09-01T12:21:23.099Z,24.72
2022-09-01T12:26:31.077Z,24.70
2022-09-01T12:31:33.726Z,24.65
2022-09-01T12:36:36.752Z,24.38
2022-09-01T12:41:47.283Z,24.93
2022-09-01T12:46:49.600Z,24.93
2022-09-01T12:52:12.069Z,25.14
2022-09-01T12:57:37.997Z,25.10
2022-09-01T13:02:44.065Z,25.04
2022-09-01T13:07:46.884Z,24.86
2022-09-01T13:12:49.243Z,24.91
2022-09-01T13:17:53.288Z,24.85
2022-09-01T13:22:55.555Z,24.61
2022-09-01T13:28:04.000Z,24.99
2022-09-01T13:33:23.627Z,24.76
2022-09-01T13:38:27.238Z,25.18
2022-09-01T13:43:32.479Z,25.09
2022-09-01T13:53:59.251Z,25.16
2022-09-01T13:59:01.464Z,25.37
2022-09-01T14:04:06.432Z,25.12
2022-09-01T14:09:14.479Z,25.10
2022-09-01T14:14:20.745Z,25.09
2022-09-01T14:19:26.135Z,25.15
2022-09-01T14:24:33.875Z,25.09
2022-09-01T14:34:38.956Z,25.70
2022-09-01T14:39:46.506Z,25.84
2022-09-01T14:44:48.863Z,25.57
2022-09-01T14:49:52.970Z,25.19
2022-09-01T14:54:55.294Z,25.09
2022-09-01T14:59:57.729Z,24.89
2022-09-01T15:05:03.536Z,24.87
2022-09-01T15:10:07.314Z,24.98
2022-09-01T15:15:10.071Z,24.57
2022-09-01T15:20:31.609Z,24.55
2022-09-01T15:25:34.565Z,24.58
2022-09-01T15:30:37.203Z,24.45
2022-09-01T15:35:45.847Z,24.88
2022-09-01T15:40:57.074Z,24.49
2022-09-01T15:46:04.174Z,24.77
2022-09-01T15:51:24.732Z,24.52
2022-09-01T15:56:27.626Z,24.50
2022-09-01T16:01:32.370Z,24.70
2022-09-01T16:06:35.289Z,24.45
2022-09-01T16:11:39.170Z,24.41
2022-09-01T16:16:49.325Z,24.39
2022-09-01T16:22:09.488Z,24.20
2022-09-01T16:27:33.315Z,23.90
2022-09-01T16:32:37.569Z,23.72
2022-09-01T16:37:45.775Z,23.64
2022-09-01T16:42:49.290Z,23.35
2022-09-01T16:48:09.626Z,22.98
2022-09-01T16:53:34.973Z,22.66
2022-09-01T16:58:37.319Z,22.57
2022-09-01T17:03:43.787Z,22.28
2022-09-01T17:09:13.359Z,21.99
2022-09-01T17:14:22.241Z,22.07
2022-09-01T17:19:25.364Z,21.90
2022-09-01T17:24:30.550Z,22.04
2022-09-01T17:29:35.525Z,22.01
2022-09-01T17:34:50.018Z,22.27
2022-09-01T17:40:05.746Z,22.02
2022-09-01T17:45:23.726Z,22.34
2022-09-01T17:55:59.939Z,22.10
2022-09-01T18:01:10.418Z,22.17
2022-09-01T18:06:22.423Z,22.23
2022-09-01T18:11:44.249Z,22.21
2022-09-01T18:16:49.273Z,22.19
2022-09-01T18:22:00.155Z,22.10
2022-09-01T18:27:17.318Z,21.92
2022-09-01T18:32:35.947Z,22.04
2022-09-01T18:37:41.021Z,22.05
2022-09-01T18:48:09.180Z,22.26
2022-09-01T18:53:31.455Z,21.96
2022-09-01T18:58:54.367Z,22.00
2022-09-01T19:04:15.445Z,22.04
2022-09-01T19:09:54.357Z,22.02
2022-09-01T19:15:18.208Z,22.13
2022-09-01T19:20:29.624Z,21.79
2022-09-01T19:25:37.902Z,21.86
2022-09-01T19:30:42.823Z,21.86
2022-09-01T19:35:49.162Z,21.78
2022-09-01T19:40:57.566Z,21.86
2022-09-01T19:46:14.815Z,21.67
2022-09-01T19:51:20.810Z,21.94
2022-09-01T19:56:37.063Z,21.81
2022-09-01T20:01:42.972Z,21.71
2022-09-01T20:06:51.074Z,21.53
2022-09-01T20:11:57.332Z,21.71
2022-09-01T20:17:07.295Z,21.56
2022-09-01T20:22:13.787Z,21.61
2022-09-01T20:27:18.841Z,21.69
2022-09-01T20:37:49.554Z,21.68
2022-09-01T20:43:03.375Z,21.81
2022-09-01T20:48:07.266Z,21.80
2022-09-01T20:53:18.053Z,21.89
2022-09-01T20:58:42.011Z,21.86
2022-09-01T21:03:54.470Z,22.13
2022-09-01T21:09:10.684Z,22.14
2022-09-01T21:14:19.334Z,21.87
2022-09-01T21:19:23.689Z,21.86
2022-09-01T21:24:26.009Z,21.66
2022-09-01T21:29:54.612Z,21.94
2022-09-01T21:34:56.091Z,21.81
2022-09-01T21:39:58.439Z,21.60
2022-09-01T21:45:07.122Z,21.56
2022-09-01T21:50:10.233Z,21.75
2022-09-01T21:55:17.494Z,21.79
2022-09-01T22:00:25.200Z,21.63
2022-09-01T22:05:31.201Z,21.56
2022-09-01T22:10:35.863Z,21.45
2022-09-01T22:15:43.143Z,21.57
2022-09-01T22:20:48.823Z,21.58
2022-09-01T22:25:51.287Z,21.56
2022-09-01T22:30:54.678Z,21.77
2022-09-01T22:35:59.088Z,21.58
2022-09-01T22:41:02.373Z,21.49
2022-09-01T22:46:05.998Z,21.46
2022-09-01T22:51:11.678Z,21.44
2022-09-01T22:56:20.465Z,21.27
2022-09-01T23:01:25.137Z,21.38
2022-09-01T23:06:28.742Z,21.06
2022-09-01T23:11:31.050Z,21.07
2022-09-01T23:16:37.906Z,21.14
2022-09-01T23:21:40.230Z,21.23
2022-09-01T23:26:42.979Z,21.06
2022-09-01T23:31:45.387Z,21.05
2022-09-01T23:36:48.936Z,21.27
2022-09-01T23:41:51.951Z,21.07
2022-09-01T23:46:54.217Z,21.11
2022-09-01T23:51:56.460Z,21.06
2022-09-01T23:57:02.933Z,21.00
